sensor_id;sensor_type;location;lat;lon;timestamp;temperature;humidity
12578;DHT22;6354;51.026;8.968;2023-04-03T00:01:09;4.80;99.90
12578;DHT22;6354;51.026;8.968;2023-04-03T00:03:39;4.70;99.90
12578;DHT22;6354;51.026;8.968;2023-04-03T00:06:08;4.70;99.90
12578;DHT22;6354;51.026;8.968;2023-04-03T00:08:38;4.70;99.90
12578;DHT22;6354;51.026;8.968;2023-04-03T00:11:06;4.70;99.90
12578;DHT22;6354;51.026;8.968;2023-04-03T00:13:35;4.70;99.90
12578;DHT22;6354;51.026;8.968;2023-04-03T00:16:03;4.70;99.90
12578;DHT22;6354;51.026;8.968;2023-04-03T00:18:31;4.70;99.90
12578;DHT22;6354;51.026;8.968;2023-04-03T00:21:01;4.60;99.90
12578;DHT22;6354;51.026;8.968;2023-04-03T00:23:29;4.60;99.90
12578;DHT22;6354;51.026;8.968;2023-04-03T00:25:57;4.50;99.90
12578;DHT22;6354;51.026;8.968;2023-04-03T00:28:25;4.50;99.90
12578;DHT22;6354;51.026;8.968;2023-04-03T00:30:53;4.50;99.90
12578;DHT22;6354;51.026;8.968;2023-04-03T00:33:21;4.50;99.90
12578;DHT22;6354;51.026;8.968;2023-04-03T00:35:51;4.40;99.90
12578;DHT22;6354;51.026;8.968;2023-04-03T00:38:21;4.50;99.90
12578;DHT22;6354;51.026;8.968;2023-04-03T00:40:49;4.40;99.90
12578;DHT22;6354;51.026;8.968;2023-04-03T00:43:19;4.30;99.90
12578;DHT22;6354;51.026;8.968;2023-04-03T00:45:49;4.30;99.90
12578;DHT22;6354;51.026;8.968;2023-04-03T00:48:20;4.20;99.90
12578;DHT22;6354;51.026;8.968;2023-04-03T00:50:50;4.20;99.90
12578;DHT22;6354;51.026;8.968;2023-04-03T00:53:23;4.10;99.90
12578;DHT22;6354;51.026;8.968;2023-04-03T00:55:54;4.10;99.90
12578;DHT22;6354;51.026;8.968;2023-04-03T00:58:28;4.00;99.90
12578;DHT22;6354;51.026;8.968;2023-04-03T01:01:03;3.90;99.90
12578;DHT22;6354;51.026;8.968;2023-04-03T01:03:31;3.90;99.90
12578;DHT22;6354;51.026;8.968;2023-04-03T01:06:00;3.80;99.90
12578;DHT22;6354;51.026;8.968;2023-04-03T01:08:29;3.70;99.90
12578;DHT22;6354;51.026;8.968;2023-04-03T01:10:57;3.70;99.90
12578;DHT22;6354;51.026;8.968;2023-04-03T01:13:27;3.60;99.90
12578;DHT22;6354;51.026;8.968;2023-04-03T01:15:56;3.60;99.90
12578;DHT22;6354;51.026;8.968;2023-04-03T01:18:25;3.50;99.90
12578;DHT22;6354;51.026;8.968;2023-04-03T01:21:11;3.50;99.90
12578;DHT22;6354;51.026;8.968;2023-04-03T01:23:52;3.50;99.90
12578;DHT22;6354;51.026;8.968;2023-04-03T01:26:21;3.40;99.90
12578;DHT22;6354;51.026;8.968;2023-04-03T01:28:49;3.30;99.90
12578;DHT22;6354;51.026;8.968;2023-04-03T01:31:21;3.30;99.90
12578;DHT22;6354;51.026;8.968;2023-04-03T01:33:52;3.20;99.90
12578;DHT22;6354;51.026;8.968;2023-04-03T01:36:22;3.20;99.90
12578;DHT22;6354;51.026;8.968;2023-04-03T01:38:51;3.10;99.90
12578;DHT22;6354;51.026;8.968;2023-04-03T01:41:20;3.10;99.90
12578;DHT22;6354;51.026;8.968;2023-04-03T01:43:49;3.00;99.90
12578;DHT22;6354;51.026;8.968;2023-04-03T01:46:18;3.10;99.90
12578;DHT22;6354;51.026;8.968;2023-04-03T01:48:46;3.00;99.90
12578;DHT22;6354;51.026;8.968;2023-04-03T01:51:16;3.00;99.90
12578;DHT22;6354;51.026;8.968;2023-04-03T01:53:44;2.90;99.90
12578;DHT22;6354;51.026;8.968;2023-04-03T01:56:12;2.90;99.90
12578;DHT22;6354;51.026;8.968;2023-04-03T01:58:40;2.90;99.90
12578;DHT22;6354;51.026;8.968;2023-04-03T02:01:08;2.80;99.90
12578;DHT22;6354;51.026;8.968;2023-04-03T02:03:36;2.80;99.90
12578;DHT22;6354;51.026;8.968;2023-04-03T02:06:04;2.80;99.90
12578;DHT22;6354;51.026;8.968;2023-04-03T02:08:34;2.70;99.90
12578;DHT22;6354;51.026;8.968;2023-04-03T02:11:02;2.70;99.90
12578;DHT22;6354;51.026;8.968;2023-04-03T02:13:30;2.60;99.90
12578;DHT22;6354;51.026;8.968;2023-04-03T02:15:58;2.60;99.90
12578;DHT22;6354;51.026;8.968;2023-04-03T02:18:26;2.60;99.90
12578;DHT22;6354;51.026;8.968;2023-04-03T02:20:55;2.60;99.90
12578;DHT22;6354;51.026;8.968;2023-04-03T02:23:22;2.50;99.90
12578;DHT22;6354;51.026;8.968;2023-04-03T02:25:52;2.50;99.90
12578;DHT22;6354;51.026;8.968;2023-04-03T02:28:20;2.40;99.90
12578;DHT22;6354;51.026;8.968;2023-04-03T02:30:48;2.40;99.90
12578;DHT22;6354;51.026;8.968;2023-04-03T02:33:16;2.40;99.90
12578;DHT22;6354;51.026;8.968;2023-04-03T02:35:44;2.30;99.90
12578;DHT22;6354;51.026;8.968;2023-04-03T02:38:19;2.30;99.90
12578;DHT22;6354;51.026;8.968;2023-04-03T02:40:47;2.30;99.90
12578;DHT22;6354;51.026;8.968;2023-04-03T02:43:17;2.20;99.90
12578;DHT22;6354;51.026;8.968;2023-04-03T02:45:45;2.20;99.90
12578;DHT22;6354;51.026;8.968;2023-04-03T02:48:13;2.10;99.90
12578;DHT22;6354;51.026;8.968;2023-04-03T02:50:43;2.10;99.90
12578;DHT22;6354;51.026;8.968;2023-04-03T02:53:11;2.10;99.90
12578;DHT22;6354;51.026;8.968;2023-04-03T02:55:39;2.10;99.90
12578;DHT22;6354;51.026;8.968;2023-04-03T02:58:07;2.00;99.90
12578;DHT22;6354;51.026;8.968;2023-04-03T03:00:37;2.00;99.90
12578;DHT22;6354;51.026;8.968;2023-04-03T03:03:05;1.90;99.90
12578;DHT22;6354;51.026;8.968;2023-04-03T03:05:33;1.90;99.90
12578;DHT22;6354;51.026;8.968;2023-04-03T03:08:02;1.90;99.90
12578;DHT22;6354;51.026;8.968;2023-04-03T03:10:30;1.80;99.90
12578;DHT22;6354;51.026;8.968;2023-04-03T03:12:58;1.80;99.90
12578;DHT22;6354;51.026;8.968;2023-04-03T03:15:26;1.80;99.90
12578;DHT22;6354;51.026;8.968;2023-04-03T03:17:55;1.80;99.90
12578;DHT22;6354;51.026;8.968;2023-04-03T03:20:23;1.70;99.90
12578;DHT22;6354;51.026;8.968;2023-04-03T03:22:52;1.70;99.90
12578;DHT22;6354;51.026;8.968;2023-04-03T03:25:20;1.70;99.90
12578;DHT22;6354;51.026;8.968;2023-04-03T03:27:48;1.60;99.90
12578;DHT22;6354;51.026;8.968;2023-04-03T03:30:16;1.60;99.90
12578;DHT22;6354;51.026;8.968;2023-04-03T03:32:44;1.60;99.90
12578;DHT22;6354;51.026;8.968;2023-04-03T03:35:13;1.60;99.90
12578;DHT22;6354;51.026;8.968;2023-04-03T03:37:41;1.60;99.90
12578;DHT22;6354;51.026;8.968;2023-04-03T03:40:10;1.50;99.90
12578;DHT22;6354;51.026;8.968;2023-04-03T03:42:39;1.50;99.90
12578;DHT22;6354;51.026;8.968;2023-04-03T03:45:08;1.50;99.90
12578;DHT22;6354;51.026;8.968;2023-04-03T03:47:37;1.50;99.90
12578;DHT22;6354;51.026;8.968;2023-04-03T03:50:06;1.40;99.90
12578;DHT22;6354;51.026;8.968;2023-04-03T03:52:35;1.40;99.90
12578;DHT22;6354;51.026;8.968;2023-04-03T03:55:04;1.40;99.90
12578;DHT22;6354;51.026;8.968;2023-04-03T03:57:32;1.30;99.90
12578;DHT22;6354;51.026;8.968;2023-04-03T04:00:00;1.40;99.90
12578;DHT22;6354;51.026;8.968;2023-04-03T04:02:28;1.30;99.90
12578;DHT22;6354;51.026;8.968;2023-04-03T04:04:56;1.30;99.90
12578;DHT22;6354;51.026;8.968;2023-04-03T04:07:24;1.30;99.90
12578;DHT22;6354;51.026;8.968;2023-04-03T04:09:56;1.30;99.90
12578;DHT22;6354;51.026;8.968;2023-04-03T04:12:24;1.20;99.90
12578;DHT22;6354;51.026;8.968;2023-04-03T04:14:52;1.20;99.90
12578;DHT22;6354;51.026;8.968;2023-04-03T04:17:20;1.20;99.90
12578;DHT22;6354;51.026;8.968;2023-04-03T04:19:48;1.10;99.90
12578;DHT22;6354;51.026;8.968;2023-04-03T04:22:16;1.10;99.90
12578;DHT22;6354;51.026;8.968;2023-04-03T04:24:44;1.10;99.90
12578;DHT22;6354;51.026;8.968;2023-04-03T04:27:13;1.10;99.90
12578;DHT22;6354;51.026;8.968;2023-04-03T04:29:42;1.10;99.90
12578;DHT22;6354;51.026;8.968;2023-04-03T04:32:10;1.00;99.90
12578;DHT22;6354;51.026;8.968;2023-04-03T04:34:38;1.00;99.90
12578;DHT22;6354;51.026;8.968;2023-04-03T04:37:06;1.00;99.90
12578;DHT22;6354;51.026;8.968;2023-04-03T04:39:34;0.90;99.90
12578;DHT22;6354;51.026;8.968;2023-04-03T04:42:02;0.90;99.90
12578;DHT22;6354;51.026;8.968;2023-04-03T04:44:32;0.90;99.90
12578;DHT22;6354;51.026;8.968;2023-04-03T04:47:00;0.90;99.90
12578;DHT22;6354;51.026;8.968;2023-04-03T04:49:28;0.80;99.90
12578;DHT22;6354;51.026;8.968;2023-04-03T04:51:56;0.80;99.90
12578;DHT22;6354;51.026;8.968;2023-04-03T04:54:24;0.80;99.90
12578;DHT22;6354;51.026;8.968;2023-04-03T04:56:52;0.80;99.90
12578;DHT22;6354;51.026;8.968;2023-04-03T04:59:20;0.80;99.90
12578;DHT22;6354;51.026;8.968;2023-04-03T05:01:49;0.80;99.90
12578;DHT22;6354;51.026;8.968;2023-04-03T05:04:17;0.80;99.90
12578;DHT22;6354;51.026;8.968;2023-04-03T05:06:46;0.80;99.90
12578;DHT22;6354;51.026;8.968;2023-04-03T05:09:14;0.70;99.90
12578;DHT22;6354;51.026;8.968;2023-04-03T05:11:42;0.70;99.90
12578;DHT22;6354;51.026;8.968;2023-04-03T05:14:10;0.70;99.90
12578;DHT22;6354;51.026;8.968;2023-04-03T05:16:38;0.80;99.90
12578;DHT22;6354;51.026;8.968;2023-04-03T05:19:07;0.90;99.90
12578;DHT22;6354;51.026;8.968;2023-04-03T05:21:35;0.90;99.90
12578;DHT22;6354;51.026;8.968;2023-04-03T05:24:04;0.90;99.90
12578;DHT22;6354;51.026;8.968;2023-04-03T05:26:35;1.00;99.90
12578;DHT22;6354;51.026;8.968;2023-04-03T05:29:03;1.00;99.90
12578;DHT22;6354;51.026;8.968;2023-04-03T05:31:31;1.10;99.90
12578;DHT22;6354;51.026;8.968;2023-04-03T05:33:59;1.10;99.90
12578;DHT22;6354;51.026;8.968;2023-04-03T05:36:29;1.20;99.90
12578;DHT22;6354;51.026;8.968;2023-04-03T05:38:57;1.20;99.90
12578;DHT22;6354;51.026;8.968;2023-04-03T05:41:25;1.10;99.90
12578;DHT22;6354;51.026;8.968;2023-04-03T05:43:53;1.20;99.90
12578;DHT22;6354;51.026;8.968;2023-04-03T05:46:21;1.30;99.90
12578;DHT22;6354;51.026;8.968;2023-04-03T05:48:49;1.30;99.90
12578;DHT22;6354;51.026;8.968;2023-04-03T05:51:19;1.30;99.90
12578;DHT22;6354;51.026;8.968;2023-04-03T05:53:58;1.30;99.90
12578;DHT22;6354;51.026;8.968;2023-04-03T05:56:28;1.30;99.90
12578;DHT22;6354;51.026;8.968;2023-04-03T05:58:56;1.30;99.90
12578;DHT22;6354;51.026;8.968;2023-04-03T06:01:24;1.30;99.90
12578;DHT22;6354;51.026;8.968;2023-04-03T06:03:52;1.30;99.90
12578;DHT22;6354;51.026;8.968;2023-04-03T06:06:21;1.40;99.90
12578;DHT22;6354;51.026;8.968;2023-04-03T06:08:50;1.30;99.90
12578;DHT22;6354;51.026;8.968;2023-04-03T06:11:18;1.30;99.90
12578;DHT22;6354;51.026;8.968;2023-04-03T06:13:48;1.50;99.90
12578;DHT22;6354;51.026;8.968;2023-04-03T06:16:17;1.50;99.90
12578;DHT22;6354;51.026;8.968;2023-04-03T06:18:45;1.50;99.90
12578;DHT22;6354;51.026;8.968;2023-04-03T06:21:13;1.40;99.90
12578;DHT22;6354;51.026;8.968;2023-04-03T06:23:41;1.40;99.90
12578;DHT22;6354;51.026;8.968;2023-04-03T06:26:10;1.30;99.90
12578;DHT22;6354;51.026;8.968;2023-04-03T06:28:38;1.30;99.90
12578;DHT22;6354;51.026;8.968;2023-04-03T06:31:06;1.50;99.90
12578;DHT22;6354;51.026;8.968;2023-04-03T06:33:35;1.50;99.90
12578;DHT22;6354;51.026;8.968;2023-04-03T06:36:04;1.50;99.90
12578;DHT22;6354;51.026;8.968;2023-04-03T06:38:33;1.60;99.90
12578;DHT22;6354;51.026;8.968;2023-04-03T06:41:01;1.50;99.90
12578;DHT22;6354;51.026;8.968;2023-04-03T06:43:31;1.50;99.90
12578;DHT22;6354;51.026;8.968;2023-04-03T06:46:00;1.80;99.90
12578;DHT22;6354;51.026;8.968;2023-04-03T06:48:28;1.80;99.90
12578;DHT22;6354;51.026;8.968;2023-04-03T06:50:57;1.80;99.90
12578;DHT22;6354;51.026;8.968;2023-04-03T06:53:25;2.10;99.90
12578;DHT22;6354;51.026;8.968;2023-04-03T06:55:53;2.30;99.90
12578;DHT22;6354;51.026;8.968;2023-04-03T06:58:21;2.40;99.90
12578;DHT22;6354;51.026;8.968;2023-04-03T07:00:50;2.50;99.90
12578;DHT22;6354;51.026;8.968;2023-04-03T07:03:18;2.40;99.90
12578;DHT22;6354;51.026;8.968;2023-04-03T07:05:46;2.60;99.90
12578;DHT22;6354;51.026;8.968;2023-04-03T07:08:14;3.20;99.90
12578;DHT22;6354;51.026;8.968;2023-04-03T07:10:42;3.80;99.90
12578;DHT22;6354;51.026;8.968;2023-04-03T07:13:10;4.40;99.90
12578;DHT22;6354;51.026;8.968;2023-04-03T07:15:38;4.60;99.90
12578;DHT22;6354;51.026;8.968;2023-04-03T07:18:07;4.80;99.90
12578;DHT22;6354;51.026;8.968;2023-04-03T07:20:35;4.60;99.90
12578;DHT22;6354;51.026;8.968;2023-04-03T07:23:03;4.50;99.90
12578;DHT22;6354;51.026;8.968;2023-04-03T07:25:31;4.80;99.90
12578;DHT22;6354;51.026;8.968;2023-04-03T07:28:00;5.10;99.90
12578;DHT22;6354;51.026;8.968;2023-04-03T07:30:28;5.00;99.90
12578;DHT22;6354;51.026;8.968;2023-04-03T07:32:56;5.00;99.90
12578;DHT22;6354;51.026;8.968;2023-04-03T07:35:26;5.40;99.90
12578;DHT22;6354;51.026;8.968;2023-04-03T07:37:54;5.50;99.90
12578;DHT22;6354;51.026;8.968;2023-04-03T07:40:22;5.40;99.90
12578;DHT22;6354;51.026;8.968;2023-04-03T07:42:50;5.20;99.90
12578;DHT22;6354;51.026;8.968;2023-04-03T07:45:19;5.10;99.90
12578;DHT22;6354;51.026;8.968;2023-04-03T07:47:47;5.00;99.90
12578;DHT22;6354;51.026;8.968;2023-04-03T07:50:16;5.50;99.90
12578;DHT22;6354;51.026;8.968;2023-04-03T07:52:45;5.10;99.90
12578;DHT22;6354;51.026;8.968;2023-04-03T07:55:13;5.50;99.90
12578;DHT22;6354;51.026;8.968;2023-04-03T07:57:41;5.20;99.90
12578;DHT22;6354;51.026;8.968;2023-04-03T08:00:10;5.40;99.90
12578;DHT22;6354;51.026;8.968;2023-04-03T08:02:38;5.40;99.90
12578;DHT22;6354;51.026;8.968;2023-04-03T08:05:07;5.30;99.90
12578;DHT22;6354;51.026;8.968;2023-04-03T08:07:37;5.20;99.90
12578;DHT22;6354;51.026;8.968;2023-04-03T08:10:07;4.90;99.90
12578;DHT22;6354;51.026;8.968;2023-04-03T08:12:35;4.90;99.90
12578;DHT22;6354;51.026;8.968;2023-04-03T08:15:04;5.30;99.90
12578;DHT22;6354;51.026;8.968;2023-04-03T08:17:33;5.50;99.90
12578;DHT22;6354;51.026;8.968;2023-04-03T08:20:01;5.60;99.90
12578;DHT22;6354;51.026;8.968;2023-04-03T08:22:30;5.60;99.90
12578;DHT22;6354;51.026;8.968;2023-04-03T08:24:58;5.60;99.90
12578;DHT22;6354;51.026;8.968;2023-04-03T08:27:27;5.40;99.90
12578;DHT22;6354;51.026;8.968;2023-04-03T08:29:56;5.20;99.90
12578;DHT22;6354;51.026;8.968;2023-04-03T08:32:24;5.00;99.90
12578;DHT22;6354;51.026;8.968;2023-04-03T08:34:52;4.70;99.90
12578;DHT22;6354;51.026;8.968;2023-04-03T08:37:20;4.60;99.90
12578;DHT22;6354;51.026;8.968;2023-04-03T08:39:48;4.50;99.90
12578;DHT22;6354;51.026;8.968;2023-04-03T08:42:24;4.50;99.90
12578;DHT22;6354;51.026;8.968;2023-04-03T08:45:02;4.50;99.90
12578;DHT22;6354;51.026;8.968;2023-04-03T08:47:38;4.50;99.90
12578;DHT22;6354;51.026;8.968;2023-04-03T08:50:12;4.90;99.90
12578;DHT22;6354;51.026;8.968;2023-04-03T08:52:44;5.00;99.90
12578;DHT22;6354;51.026;8.968;2023-04-03T08:55:22;4.60;99.90
12578;DHT22;6354;51.026;8.968;2023-04-03T08:57:53;4.60;99.90
12578;DHT22;6354;51.026;8.968;2023-04-03T09:00:30;4.60;99.90
12578;DHT22;6354;51.026;8.968;2023-04-03T09:02:58;4.50;99.90
12578;DHT22;6354;51.026;8.968;2023-04-03T09:05:35;4.80;99.90
12578;DHT22;6354;51.026;8.968;2023-04-03T09:08:14;4.90;99.90
12578;DHT22;6354;51.026;8.968;2023-04-03T09:10:45;5.00;99.90
12578;DHT22;6354;51.026;8.968;2023-04-03T09:13:22;4.90;99.90
12578;DHT22;6354;51.026;8.968;2023-04-03T09:15:54;5.20;99.90
12578;DHT22;6354;51.026;8.968;2023-04-03T09:18:28;5.60;99.90
12578;DHT22;6354;51.026;8.968;2023-04-03T09:21:04;5.90;99.90
12578;DHT22;6354;51.026;8.968;2023-04-03T09:23:39;5.90;99.90
12578;DHT22;6354;51.026;8.968;2023-04-03T09:26:15;6.00;99.90
12578;DHT22;6354;51.026;8.968;2023-04-03T09:28:45;6.00;99.90
12578;DHT22;6354;51.026;8.968;2023-04-03T09:31:24;5.90;99.90
12578;DHT22;6354;51.026;8.968;2023-04-03T09:33:54;5.60;99.90
12578;DHT22;6354;51.026;8.968;2023-04-03T09:36:48;5.50;99.90
12578;DHT22;6354;51.026;8.968;2023-04-03T09:39:19;5.50;99.90
12578;DHT22;6354;51.026;8.968;2023-04-03T09:41:59;5.70;99.90
12578;DHT22;6354;51.026;8.968;2023-04-03T09:44:34;5.80;99.90
12578;DHT22;6354;51.026;8.968;2023-04-03T09:47:19;6.00;99.90
12578;DHT22;6354;51.026;8.968;2023-04-03T09:49:47;6.20;99.90
12578;DHT22;6354;51.026;8.968;2023-04-03T09:52:20;6.40;99.90
12578;DHT22;6354;51.026;8.968;2023-04-03T09:54:48;6.40;99.90
12578;DHT22;6354;51.026;8.968;2023-04-03T09:57:17;6.20;99.90
12578;DHT22;6354;51.026;8.968;2023-04-03T09:59:47;6.20;99.90
12578;DHT22;6354;51.026;8.968;2023-04-03T10:02:33;6.40;99.90
12578;DHT22;6354;51.026;8.968;2023-04-03T10:05:03;6.50;99.90
12578;DHT22;6354;51.026;8.968;2023-04-03T10:07:38;6.40;99.90
12578;DHT22;6354;51.026;8.968;2023-04-03T10:10:19;6.30;99.90
12578;DHT22;6354;51.026;8.968;2023-04-03T10:13:04;6.40;99.90
12578;DHT22;6354;51.026;8.968;2023-04-03T10:15:37;6.60;99.90
12578;DHT22;6354;51.026;8.968;2023-04-03T10:18:22;6.80;99.90
12578;DHT22;6354;51.026;8.968;2023-04-03T10:20:58;6.90;99.90
12578;DHT22;6354;51.026;8.968;2023-04-03T10:23:32;6.80;99.90
12578;DHT22;6354;51.026;8.968;2023-04-03T10:26:13;6.60;99.90
12578;DHT22;6354;51.026;8.968;2023-04-03T10:28:48;6.20;99.90
12578;DHT22;6354;51.026;8.968;2023-04-03T10:31:23;6.00;99.90
12578;DHT22;6354;51.026;8.968;2023-04-03T10:34:02;6.10;99.90
12578;DHT22;6354;51.026;8.968;2023-04-03T10:36:38;5.80;99.90
12578;DHT22;6354;51.026;8.968;2023-04-03T10:39:19;6.00;99.90
12578;DHT22;6354;51.026;8.968;2023-04-03T10:41:59;6.00;99.90
12578;DHT22;6354;51.026;8.968;2023-04-03T10:45:03;6.00;99.90
12578;DHT22;6354;51.026;8.968;2023-04-03T10:47:41;5.90;99.90
12578;DHT22;6354;51.026;8.968;2023-04-03T10:50:27;6.10;99.90
12578;DHT22;6354;51.026;8.968;2023-04-03T10:53:04;6.10;99.90
12578;DHT22;6354;51.026;8.968;2023-04-03T10:55:38;6.20;99.90
12578;DHT22;6354;51.026;8.968;2023-04-03T10:58:15;6.20;99.90
12578;DHT22;6354;51.026;8.968;2023-04-03T11:00:48;6.10;99.90
12578;DHT22;6354;51.026;8.968;2023-04-03T11:03:27;6.10;99.90
12578;DHT22;6354;51.026;8.968;2023-04-03T11:06:01;6.10;99.90
12578;DHT22;6354;51.026;8.968;2023-04-03T11:08:34;6.20;99.90
12578;DHT22;6354;51.026;8.968;2023-04-03T11:11:05;6.50;99.90
12578;DHT22;6354;51.026;8.968;2023-04-03T11:13:37;6.60;99.90
12578;DHT22;6354;51.026;8.968;2023-04-03T11:16:07;6.40;99.90
12578;DHT22;6354;51.026;8.968;2023-04-03T11:18:41;6.50;99.90
12578;DHT22;6354;51.026;8.968;2023-04-03T11:21:17;6.70;99.90
12578;DHT22;6354;51.026;8.968;2023-04-03T11:23:48;6.40;99.90
12578;DHT22;6354;51.026;8.968;2023-04-03T11:26:19;6.20;99.90
12578;DHT22;6354;51.026;8.968;2023-04-03T11:28:52;6.10;99.90
12578;DHT22;6354;51.026;8.968;2023-04-03T11:31:35;5.90;99.90
12578;DHT22;6354;51.026;8.968;2023-04-03T11:34:15;6.10;99.90
12578;DHT22;6354;51.026;8.968;2023-04-03T11:36:49;6.30;99.90
12578;DHT22;6354;51.026;8.968;2023-04-03T11:39:22;6.40;99.90
12578;DHT22;6354;51.026;8.968;2023-04-03T11:41:51;6.40;99.90
12578;DHT22;6354;51.026;8.968;2023-04-03T11:44:35;6.60;99.90
12578;DHT22;6354;51.026;8.968;2023-04-03T11:47:05;6.60;99.90
12578;DHT22;6354;51.026;8.968;2023-04-03T11:49:54;6.70;99.90
12578;DHT22;6354;51.026;8.968;2023-04-03T11:52:59;6.70;99.90
12578;DHT22;6354;51.026;8.968;2023-04-03T11:55:51;6.90;99.90
12578;DHT22;6354;51.026;8.968;2023-04-03T11:58:20;7.00;99.90
12578;DHT22;6354;51.026;8.968;2023-04-03T12:00:52;7.10;99.90
12578;DHT22;6354;51.026;8.968;2023-04-03T12:03:32;7.10;99.90
12578;DHT22;6354;51.026;8.968;2023-04-03T12:09:29;7.00;99.90
12578;DHT22;6354;51.026;8.968;2023-04-03T12:12:01;6.90;99.90
12578;DHT22;6354;51.026;8.968;2023-04-03T12:14:48;6.90;99.90
12578;DHT22;6354;51.026;8.968;2023-04-03T12:17:22;6.70;99.90
12578;DHT22;6354;51.026;8.968;2023-04-03T12:19:52;6.70;99.90
12578;DHT22;6354;51.026;8.968;2023-04-03T12:22:21;6.70;99.90
12578;DHT22;6354;51.026;8.968;2023-04-03T12:24:51;6.70;99.90
12578;DHT22;6354;51.026;8.968;2023-04-03T12:27:38;6.60;99.90
12578;DHT22;6354;51.026;8.968;2023-04-03T12:30:16;6.60;99.90
12578;DHT22;6354;51.026;8.968;2023-04-03T12:33:04;6.50;99.90
12578;DHT22;6354;51.026;8.968;2023-04-03T12:35:46;6.50;99.90
12578;DHT22;6354;51.026;8.968;2023-04-03T12:38:54;6.40;99.90
12578;DHT22;6354;51.026;8.968;2023-04-03T12:41:32;6.30;99.90
12578;DHT22;6354;51.026;8.968;2023-04-03T12:47:18;6.80;99.90
12578;DHT22;6354;51.026;8.968;2023-04-03T12:49:49;6.80;99.90
12578;DHT22;6354;51.026;8.968;2023-04-03T12:52:25;7.00;99.90
12578;DHT22;6354;51.026;8.968;2023-04-03T12:54:56;7.10;99.90
12578;DHT22;6354;51.026;8.968;2023-04-03T12:57:26;7.10;99.90
12578;DHT22;6354;51.026;8.968;2023-04-03T12:59:55;7.10;99.90
12578;DHT22;6354;51.026;8.968;2023-04-03T13:02:26;6.80;99.90
12578;DHT22;6354;51.026;8.968;2023-04-03T13:04:56;6.80;99.90
12578;DHT22;6354;51.026;8.968;2023-04-03T13:07:29;6.80;99.90
12578;DHT22;6354;51.026;8.968;2023-04-03T13:10:14;6.90;99.90
12578;DHT22;6354;51.026;8.968;2023-04-03T13:12:50;6.80;99.90
12578;DHT22;6354;51.026;8.968;2023-04-03T13:15:20;6.70;99.90
12578;DHT22;6354;51.026;8.968;2023-04-03T13:17:49;6.60;99.90
12578;DHT22;6354;51.026;8.968;2023-04-03T13:20:23;6.60;99.90
12578;DHT22;6354;51.026;8.968;2023-04-03T13:22:57;6.70;99.90
12578;DHT22;6354;51.026;8.968;2023-04-03T13:25:29;6.80;99.90
12578;DHT22;6354;51.026;8.968;2023-04-03T13:28:01;6.90;99.90
12578;DHT22;6354;51.026;8.968;2023-04-03T13:30:40;6.80;99.90
12578;DHT22;6354;51.026;8.968;2023-04-03T13:33:20;6.80;99.90
12578;DHT22;6354;51.026;8.968;2023-04-03T13:35:55;6.70;99.90
12578;DHT22;6354;51.026;8.968;2023-04-03T13:38:27;6.70;99.90
12578;DHT22;6354;51.026;8.968;2023-04-03T13:40:59;6.70;99.90
12578;DHT22;6354;51.026;8.968;2023-04-03T13:43:33;6.80;99.90
12578;DHT22;6354;51.026;8.968;2023-04-03T13:46:05;6.90;99.90
12578;DHT22;6354;51.026;8.968;2023-04-03T13:48:50;6.90;99.90
12578;DHT22;6354;51.026;8.968;2023-04-03T13:51:21;6.80;99.90
12578;DHT22;6354;51.026;8.968;2023-04-03T13:53:52;6.90;99.90
12578;DHT22;6354;51.026;8.968;2023-04-03T13:56:27;7.00;99.90
12578;DHT22;6354;51.026;8.968;2023-04-03T13:59:03;7.10;99.90
12578;DHT22;6354;51.026;8.968;2023-04-03T14:01:42;7.10;99.90
12578;DHT22;6354;51.026;8.968;2023-04-03T14:04:14;7.30;99.90
12578;DHT22;6354;51.026;8.968;2023-04-03T14:06:43;7.30;99.90
12578;DHT22;6354;51.026;8.968;2023-04-03T14:09:11;7.00;99.90
12578;DHT22;6354;51.026;8.968;2023-04-03T14:11:40;6.80;99.90
12578;DHT22;6354;51.026;8.968;2023-04-03T14:14:14;6.60;99.90
12578;DHT22;6354;51.026;8.968;2023-04-03T14:16:45;6.60;99.90
12578;DHT22;6354;51.026;8.968;2023-04-03T14:19:21;6.60;99.90
12578;DHT22;6354;51.026;8.968;2023-04-03T14:21:50;6.70;99.90
12578;DHT22;6354;51.026;8.968;2023-04-03T14:24:19;6.80;99.90
12578;DHT22;6354;51.026;8.968;2023-04-03T14:26:49;6.70;99.90
12578;DHT22;6354;51.026;8.968;2023-04-03T14:29:19;6.70;99.90
12578;DHT22;6354;51.026;8.968;2023-04-03T14:31:49;6.80;99.90
12578;DHT22;6354;51.026;8.968;2023-04-03T14:34:29;6.80;99.90
12578;DHT22;6354;51.026;8.968;2023-04-03T14:36:57;6.90;99.90
12578;DHT22;6354;51.026;8.968;2023-04-03T14:39:25;6.90;99.90
12578;DHT22;6354;51.026;8.968;2023-04-03T14:41:53;6.90;99.50
12578;DHT22;6354;51.026;8.968;2023-04-03T14:44:22;6.90;99.40
12578;DHT22;6354;51.026;8.968;2023-04-03T14:46:50;6.70;98.70
12578;DHT22;6354;51.026;8.968;2023-04-03T14:49:25;6.80;98.90
12578;DHT22;6354;51.026;8.968;2023-04-03T14:51:55;6.90;98.90
12578;DHT22;6354;51.026;8.968;2023-04-03T14:54:23;6.90;99.80
12578;DHT22;6354;51.026;8.968;2023-04-03T14:56:55;7.00;99.90
12578;DHT22;6354;51.026;8.968;2023-04-03T14:59:26;7.10;99.90
12578;DHT22;6354;51.026;8.968;2023-04-03T15:01:54;6.80;99.90
12578;DHT22;6354;51.026;8.968;2023-04-03T15:04:22;6.60;99.90
12578;DHT22;6354;51.026;8.968;2023-04-03T15:06:52;6.50;99.90
12578;DHT22;6354;51.026;8.968;2023-04-03T15:09:22;6.30;99.90
12578;DHT22;6354;51.026;8.968;2023-04-03T15:11:52;6.20;99.90
12578;DHT22;6354;51.026;8.968;2023-04-03T15:14:21;6.40;99.90
12578;DHT22;6354;51.026;8.968;2023-04-03T15:17:14;6.40;99.90
12578;DHT22;6354;51.026;8.968;2023-04-03T15:19:43;6.50;99.90
12578;DHT22;6354;51.026;8.968;2023-04-03T15:22:14;6.50;99.90
12578;DHT22;6354;51.026;8.968;2023-04-03T15:24:43;6.60;99.60
12578;DHT22;6354;51.026;8.968;2023-04-03T15:27:13;6.60;99.40
12578;DHT22;6354;51.026;8.968;2023-04-03T15:29:42;6.60;98.90
12578;DHT22;6354;51.026;8.968;2023-04-03T15:32:13;6.60;99.20
12578;DHT22;6354;51.026;8.968;2023-04-03T15:34:41;6.60;98.80
12578;DHT22;6354;51.026;8.968;2023-04-03T15:37:09;6.60;99.30
12578;DHT22;6354;51.026;8.968;2023-04-03T15:39:37;6.70;99.90
12578;DHT22;6354;51.026;8.968;2023-04-03T15:42:05;6.80;99.90
12578;DHT22;6354;51.026;8.968;2023-04-03T15:44:33;6.80;99.80
12578;DHT22;6354;51.026;8.968;2023-04-03T15:47:02;6.80;99.90
12578;DHT22;6354;51.026;8.968;2023-04-03T15:49:33;6.60;99.90
12578;DHT22;6354;51.026;8.968;2023-04-03T15:52:02;6.40;99.90
12578;DHT22;6354;51.026;8.968;2023-04-03T15:54:30;6.30;99.90
12578;DHT22;6354;51.026;8.968;2023-04-03T15:56:58;6.20;99.90
12578;DHT22;6354;51.026;8.968;2023-04-03T15:59:26;6.10;99.90
12578;DHT22;6354;51.026;8.968;2023-04-03T16:01:55;6.30;99.90
12578;DHT22;6354;51.026;8.968;2023-04-03T16:04:24;6.10;99.90
12578;DHT22;6354;51.026;8.968;2023-04-03T16:06:53;6.20;99.90
12578;DHT22;6354;51.026;8.968;2023-04-03T16:09:21;6.30;99.90
12578;DHT22;6354;51.026;8.968;2023-04-03T16:11:49;6.40;99.90
12578;DHT22;6354;51.026;8.968;2023-04-03T16:14:17;6.40;98.80
12578;DHT22;6354;51.026;8.968;2023-04-03T16:16:45;6.40;98.90
12578;DHT22;6354;51.026;8.968;2023-04-03T16:19:13;6.30;99.10
12578;DHT22;6354;51.026;8.968;2023-04-03T16:21:42;6.40;99.70
12578;DHT22;6354;51.026;8.968;2023-04-03T16:24:11;6.30;99.90
12578;DHT22;6354;51.026;8.968;2023-04-03T16:26:42;6.10;99.80
12578;DHT22;6354;51.026;8.968;2023-04-03T16:29:10;6.10;99.90
12578;DHT22;6354;51.026;8.968;2023-04-03T16:31:38;6.00;99.90
12578;DHT22;6354;51.026;8.968;2023-04-03T16:34:06;5.90;99.70